首页
METAR-TAF:

METAR-TAF

机场 :

亚历山大城, 阿拉巴马州, 美国

纬度: 32-54-53N, 经度: 085-57-46W, 海拔: 209米

当前天气观测

该预报发布于7分钟前的00:35 UTC
风速6节,风向南转南东
温度 21°C
湿度 94%
气压 1013 hPa
能見度: 16.1公里
多云层高于800英尺
阴天层高于1300英尺

METAR: KALX 160035Z AUTO 15006KT 10SM BKN008 OVC013 21/20 A2991 RMK AO2 T02050197

时间: 19:42 (00:42 UTC)


TAF: 丢失

超过4000个机场的气象观测和天气预报(METAR&TAF报告)。

可查询的气象台以黄色和红色小点在地图上表示。

将鼠标移到小点上方,可查看气象台名称。

然后点击查看天气观测和预报。

如需切换地图:点击带黑十字的绿色按钮放大地图;点击带横线的绿色按钮缩小地图;或者点击绿色箭头查看邻近地区的地图。


METAR-TAF: